Time;durP1;ratioP1;P1;durP2;ratioP2;P2;SDS_P1;SDS_P2;PMS_P1;PMS_P2;Temp;Humidity;BMP_temperature;BMP_pressure;BME280_temperature;BME280_humidity;BME280_pressure;Samples;Min_cycle;Max_cycle;Signal;HPM_P1;HPM_P2
2023/05/30 00:02:11;;;;;;;20.80;4.82;;;;;;;;;;4944026;29;20547;-95
2023/05/30 00:04:56;;;;;;;9.95;4.90;;;;;;;;;;4958067;29;20098;-95
2023/05/30 00:07:41;;;;;;;11.75;3.08;;;;;;;;;;4957679;29;20050;-95
2023/05/30 00:10:26;;;;;;;14.80;3.42;;;;;;;;;;4943578;29;20058;-92
2023/05/30 00:13:10;;;;;;;16.15;3.50;;;;;;;;;;4959276;29;20396;-94
2023/05/30 00:15:59;;;;;;;15.85;3.40;;;;;;;;;;4949486;29;20050;-95
2023/05/30 00:18:43;;;;;;;14.98;3.65;;;;;;;;;;4957233;29;20046;-93
2023/05/30 00:21:28;;;;;;;15.57;3.53;;;;;;;;;;4942153;29;20073;-93
2023/05/30 00:24:13;;;;;;;11.40;3.58;;;;;;;;;;4956465;29;20570;-94
2023/05/30 00:26:57;;;;;;;11.43;4.10;;;;;;;;;;4941937;29;20043;-92
2023/05/30 00:29:42;;;;;;;13.40;3.92;;;;;;;;;;4955739;28;20043;-94
2023/05/30 00:32:26;;;;;;;15.35;5.32;;;;;;;;;;4955868;29;20495;-94
2023/05/30 00:35:11;;;;;;;14.80;3.85;;;;;;;;;;4955957;29;20498;-93
2023/05/30 00:37:55;;;;;;;17.52;4.43;;;;;;;;;;4943149;29;20448;-95
2023/05/30 00:40:40;;;;;;;8.57;3.63;;;;;;;;;;4941728;29;20046;-95
2023/05/30 00:43:25;;;;;;;8.88;3.72;;;;;;;;;;4958643;29;20562;-93
2023/05/30 00:46:10;;;;;;;15.57;3.40;;;;;;;;;;4958832;29;20115;-95
2023/05/30 00:48:55;;;;;;;11.90;3.45;;;;;;;;;;4943996;29;20043;-94
2023/05/30 00:51:42;;;;;;;14.73;4.32;;;;;;;;;;4948634;29;20099;-95
2023/05/30 00:54:27;;;;;;;11.00;4.28;;;;;;;;;;4943379;29;20076;-95
2023/05/30 00:57:12;;;;;;;18.83;5.32;;;;;;;;;;4956950;29;20085;-96
2023/05/30 01:00:00;;;;;;;14.77;4.80;;;;;;;;;;4942595;29;20116;-95
2023/05/30 01:02:44;;;;;;;10.05;3.60;;;;;;;;;;4943364;29;20456;-95
2023/05/30 01:05:29;;;;;;;12.82;3.97;;;;;;;;;;4957028;29;20074;-95
2023/05/30 01:08:14;;;;;;;14.95;3.35;;;;;;;;;;4956687;29;20045;-96
2023/05/30 01:11:06;;;;;;;11.60;4.50;;;;;;;;;;4948209;29;20094;-95
2023/05/30 01:13:56;;;;;;;12.13;3.22;;;;;;;;;;4950317;29;20449;-94
2023/05/30 01:16:45;;;;;;;12.25;3.38;;;;;;;;;;4961433;29;20066;-95
2023/05/30 01:19:50;;;;;;;17.15;4.15;;;;;;;;;;4950665;29;20175;-95
2023/05/30 01:22:41;;;;;;;10.25;3.33;;;;;;;;;;4960057;29;20039;-91
2023/05/30 01:25:35;;;;;;;12.05;3.28;;;;;;;;;;4960870;29;20046;-95
2023/05/30 01:28:22;;;;;;;13.05;3.78;;;;;;;;;;4947930;29;20070;-95
2023/05/30 01:31:08;;;;;;;9.20;3.50;;;;;;;;;;4959694;29;20042;-95
2023/05/30 01:33:53;;;;;;;12.77;3.85;;;;;;;;;;4940312;29;20058;-94
2023/05/30 01:36:37;;;;;;;13.70;3.60;;;;;;;;;;4940253;29;20118;-94
2023/05/30 01:39:22;;;;;;;11.90;3.10;;;;;;;;;;4921489;29;20054;-95
2023/05/30 01:42:15;;;;;;;13.57;3.40;;;;;;;;;;4935297;29;20519;-94
2023/05/30 01:45:10;;;;;;;12.35;3.50;;;;;;;;;;4921010;29;20046;-94
2023/05/30 01:48:07;;;;;;;10.35;3.65;;;;;;;;;;4935394;29;20063;-95
2023/05/30 01:50:53;;;;;;;19.77;4.05;;;;;;;;;;4920847;29;20042;-95
2023/05/30 01:53:43;;;;;;;9.65;2.78;;;;;;;;;;4921461;29;20095;-92
2023/05/30 01:56:28;;;;;;;14.43;3.15;;;;;;;;;;4922883;29;20131;-95
2023/05/30 01:59:15;;;;;;;16.10;4.50;;;11.10;99.90;;;;;;4935552;29;20046;-95
2023/05/30 02:02:01;;;;;;;9.45;3.28;;;;;;;;;;4935058;29;20035;-95
2023/05/30 02:04:45;;;;;;;13.48;3.67;;;;;;;;;;4934623;29;20650;-94
2023/05/30 02:07:30;;;;;;;11.57;3.47;;;;;;;;;;4935335;29;20055;-95
2023/05/30 02:10:14;;;;;;;11.48;4.00;;;;;;;;;;4921085;29;20085;-94
2023/05/30 02:12:59;;;;;;;10.63;3.00;;;;;;;;;;4935265;29;20094;-93
2023/05/30 02:15:44;;;;;;;11.25;3.65;;;;;;;;;;4920731;29;20043;-94
2023/05/30 02:18:29;;;;;;;10.43;3.17;;;;;;;;;;4935241;29;20090;-95
2023/05/30 02:21:14;;;;;;;9.23;3.35;;;;;;;;;;4921418;29;20070;-94
2023/05/30 02:23:58;;;;;;;15.70;3.47;;;;;;;;;;4934624;29;20404;-94
2023/05/30 02:26:43;;;;;;;13.82;3.08;;;;;;;;;;4933918;29;20511;-92
2023/05/30 02:29:28;;;;;;;11.98;4.05;;;;;;;;;;4935293;29;20043;-94
2023/05/30 02:32:12;;;;;;;7.75;3.10;;;;;;;;;;4920711;29;20067;-95
2023/05/30 02:34:56;;;;;;;12.20;3.20;;;;;;;;;;4920573;29;20064;-93
2023/05/30 02:37:41;;;;;;;10.63;3.47;;;;;;;;;;4928500;29;20070;-94
2023/05/30 02:40:26;;;;;;;9.52;3.08;;;;;;;;;;4940037;29;20053;-93
2023/05/30 02:43:11;;;;;;;13.77;3.90;;;;;;;;;;4926506;29;20039;-94
2023/05/30 02:45:56;;;;;;;10.98;3.67;;;;;;;;;;4939625;29;20078;-94
2023/05/30 02:48:40;;;;;;;11.73;3.53;;;;;;;;;;4940080;29;20046;-94
2023/05/30 02:51:25;;;;;;;13.45;4.20;;;;;;;;;;4953789;29;20099;-95
2023/05/30 02:54:09;;;;;;;17.98;3.90;;;;;;;;;;4941167;29;20407;-94
2023/05/30 02:56:54;;;;;;;18.40;3.90;;;;;;;;;;4941742;29;20503;-93
2023/05/30 02:59:38;;;;;;;10.55;3.42;;;;;;;;;;4926581;29;20042;-95
2023/05/30 03:02:23;;;;;;;12.38;3.58;;;;;;;;;;4930125;29;20046;-94
2023/05/30 03:05:09;;;;;;;13.48;4.20;;;;;;;;;;4944973;28;20178;-94
2023/05/30 03:07:54;;;;;;;13.02;4.95;;;;;;;;;;4932262;29;20503;-94
2023/05/30 03:10:40;;;;;;;10.73;3.92;;;;;;;;;;4944564;29;20090;-94
2023/05/30 03:13:25;;;;;;;18.42;3.72;;;;;;;;;;4944708;29;20443;-94
2023/05/30 03:16:10;;;;;;;12.05;3.83;;;;;;;;;;4944233;29;20047;-94
2023/05/30 03:18:55;;;;;;;13.07;3.65;;;;;;;;;;4930154;28;20050;-94
2023/05/30 03:21:41;;;;;;;19.77;4.10;;;;;;;;;;4945479;29;20127;-95
2023/05/30 03:24:26;;;;;;;10.43;3.60;;;;;;;;;;4957579;28;20050;-94
2023/05/30 03:27:11;;;;;;;14.40;3.72;;;;;;;;;;4942344;29;20174;-95
2023/05/30 03:29:56;;;;;;;12.82;3.85;;;;;;;;;;4917438;29;20189;-94
2023/05/30 03:32:41;;;;;;;12.80;3.83;;;;;;;;;;4958770;28;20046;-94
2023/05/30 03:35:26;;;;;;;16.65;4.10;;;;;;;;;;4944556;29;20451;-94
2023/05/30 03:38:10;;;;;;;11.30;4.05;;;;;;;;;;4943570;28;20110;-96
2023/05/30 03:40:55;;;;;;;14.63;4.72;;;;;;;;;;4944291;29;20122;-95
2023/05/30 03:43:39;;;;;;;14.90;5.07;;;;;;;;;;4931894;29;20058;-96
2023/05/30 03:46:24;;;;;;;9.55;4.40;;;;;;;;;;4929193;28;20051;-95
2023/05/30 03:49:09;;;;;;;12.18;4.18;;;;;;;;;;4942507;29;20124;-95
2023/05/30 03:51:53;;;;;;;13.20;3.35;;;;;;;;;;4943183;29;20038;-94
2023/05/30 03:54:38;;;;;;;14.32;3.97;;;;;;;;;;4924363;28;20054;-94
2023/05/30 03:57:22;;;;;;;14.98;4.65;;;;;;;;;;4942776;29;20094;-95
2023/05/30 04:00:08;;;;;;;14.88;3.97;;;;;;;;;;4942279;28;20038;-95
2023/05/30 04:02:53;;;;;;;18.75;4.25;;;;;;;;;;4942479;29;20404;-92
2023/05/30 04:05:38;;;;;;;12.30;4.05;;;;;;;;;;4943832;28;20833;-94
2023/05/30 04:08:23;;;;;;;15.63;4.68;;;;;;;;;;4942156;28;20097;-95
2023/05/30 04:11:08;;;;;;;15.95;4.20;;;;;;;;;;4941863;29;20046;-94
2023/05/30 04:13:52;;;;;;;12.63;3.58;;;;;;;;;;4956680;28;20038;-93
2023/05/30 04:16:37;;;;;;;16.63;4.13;;;;;;;;;;4942397;29;20061;-95
2023/05/30 04:19:21;;;;;;;15.82;4.00;;;;;;;;;;4942350;29;20095;-94
2023/05/30 04:22:06;;;;;;;10.38;3.60;;;;;;;;;;4928208;28;20042;-95
2023/05/30 04:24:50;;;;;;;15.52;4.32;;;;;;;;;;4947426;29;20094;-94
2023/05/30 04:27:36;;;;;;;12.40;3.45;;;;;;;;;;4947629;28;20038;-95
2023/05/30 04:30:21;;;;;;;15.43;3.80;;;;;;;;;;4942289;29;20126;-94
2023/05/30 04:33:07;;;;;;;14.93;3.80;;;;;;;;;;4945710;28;20174;-95
2023/05/30 04:35:52;;;;;;;11.40;3.35;;;;;;;;;;4971405;28;20083;-93
2023/05/30 04:38:37;;;;;;;15.60;3.63;;;;;;;;;;4974408;28;20079;-93
2023/05/30 04:41:24;;;;;;;17.00;4.18;;;;;;;;;;4962385;29;20046;-93
2023/05/30 04:44:09;;;;;;;14.93;3.58;;;;;;;;;;4975543;28;20070;-94
2023/05/30 04:46:54;;;;;;;13.70;3.95;;;;;;;;;;4963604;29;20046;-93
2023/05/30 04:49:39;;;;;;;12.68;4.13;;;;;;;;;;4977026;28;20100;-93
2023/05/30 04:52:24;;;;;;;17.13;4.13;;;;;;;;;;4953217;29;20090;-94
2023/05/30 04:55:10;;;;;;;36.78;4.07;;;;;;;;;;4942483;29;20050;-94
2023/05/30 04:57:55;;;;;;;13.20;4.43;;;;;;;;;;4957474;28;20581;-94
2023/05/30 05:00:40;;;;;;;13.93;4.20;;;;;;;;;;4957682;28;20447;-94
2023/05/30 05:03:25;;;;;;;14.43;3.30;;;;;;;;;;4947862;28;20499;-94
2023/05/30 05:06:11;;;;;;;26.00;5.45;;;;;;;;;;4942110;29;20034;-94
2023/05/30 05:08:55;;;;;;;14.25;4.72;;;;;;;;;;4941731;28;20074;-94
2023/05/30 05:11:40;;;;;;;17.63;3.97;;;;;;;;;;4948184;29;20090;-94
2023/05/30 05:14:24;;;;;;;12.70;3.78;;;;;;;;;;4956183;28;20057;-94
2023/05/30 05:17:09;;;;;;;10.77;3.42;;;;;;;;;;4945355;28;20042;-94
2023/05/30 05:19:54;;;;;;;13.23;3.75;;;;;;;;;;4952776;28;20420;-95
2023/05/30 05:22:39;;;;;;;10.20;3.28;;;;;;;;;;4945763;28;20517;-94
2023/05/30 05:25:24;;;;;;;15.85;4.13;;;;;;;;;;4955439;28;20054;-95
2023/05/30 05:28:09;;;;;;;15.73;4.00;;;;;;;;;;4939290;28;20037;-94
2023/05/30 05:30:54;;;;;;;16.98;4.18;;;;;;;;;;4944401;28;20049;-94
2023/05/30 05:33:38;;;;;;;13.30;4.05;;;;;;;;;;4953308;28;20046;-95
2023/05/30 05:36:23;;;;;;;13.45;3.78;;;;;;;;;;4961092;28;20073;-93
2023/05/30 05:39:08;;;;;;;13.63;3.42;;;;;;;;;;4952256;28;20459;-95
2023/05/30 05:41:53;;;;;;;12.68;3.28;;;;;;;;;;4965090;28;20574;-94
2023/05/30 05:44:38;;;;;;;12.50;3.42;;;;;;;;;;4965672;28;20490;-94
2023/05/30 05:47:22;;;;;;;9.48;3.65;;;;;;;;;;4914882;29;20064;-93
2023/05/30 05:50:10;;;;;;;16.70;5.95;;;;;;;;;;4956435;28;20090;-95
2023/05/30 05:52:55;;;;;;;12.32;3.45;;;;;;;;;;4963125;28;20045;-95
2023/05/30 05:55:40;;;;;;;13.98;3.60;;;;;;;;;;4958491;28;20127;-96
2023/05/30 05:58:32;;;;;;;8.77;3.95;;;;;;;;;;4939853;29;20030;-91
2023/05/30 06:01:16;;;;;;;6.47;2.75;;;;;;;;;;4972653;28;20086;-94
2023/05/30 06:04:03;;;;;;;9.93;3.00;;;;;;;;;;4943090;28;20054;-94
2023/05/30 06:06:48;;;;;;;10.05;3.42;;;;;;;;;;4962371;28;20066;-96
2023/05/30 06:09:34;;;;;;;12.90;3.17;;;;;;;;;;4949748;29;20451;-93
2023/05/30 06:12:19;;;;;;;11.25;3.53;;;;;;;;;;4939831;29;20034;-92
2023/05/30 06:15:03;;;;;;;11.35;3.17;;;;;;;;;;4926553;29;20074;-93
2023/05/30 06:17:48;;;;;;;12.40;3.60;;;;;;;;;;4928821;29;20070;-93
2023/05/30 06:20:33;;;;;;;14.40;3.35;;;;;;;;;;4939120;28;20063;-93
2023/05/30 06:23:19;;;;;;;9.90;2.53;;;;;;;;;;4950402;28;20069;-92
2023/05/30 06:26:03;;;;;;;13.05;3.72;;;;;;;;;;4939681;29;20094;-93
2023/05/30 06:28:50;;;;;;;6.95;2.75;;;12.10;99.90;;;;;;4942083;28;20551;-94
2023/05/30 06:31:34;;;;;;;9.00;3.42;;;;;;;;;;4976329;28;20105;-93
2023/05/30 06:34:19;;;;;;;7.85;2.80;;;;;;;;;;4971210;28;20093;-92
2023/05/30 06:37:04;;;;;;;11.18;2.97;;;;;;;;;;4956238;28;20110;-92
2023/05/30 06:39:49;;;;;;;8.65;2.95;;;;;;;;;;4942332;29;20046;-91
2023/05/30 06:42:36;;;;;;;12.45;3.95;;;;;;;;;;4961283;28;20078;-93
2023/05/30 06:45:21;;;;;;;8.43;2.92;;;;;;;;;;4950875;28;20404;-92
2023/05/30 06:48:06;;;;;;;10.88;3.60;;;;;;;;;;4961788;28;20089;-94
2023/05/30 06:50:51;;;;;;;6.13;2.95;;;;;;;;;;4945164;29;20046;-94
2023/05/30 06:53:35;;;;;;;7.10;2.75;;;;;;;;;;4955986;29;20049;-93
2023/05/30 06:56:20;;;;;;;12.60;3.38;;;;;;;;;;4961284;28;20132;-93
2023/05/30 06:59:05;;;;;;;7.57;2.60;;;;;;;;;;4959465;28;20054;-92
2023/05/30 07:01:49;;;;;;;8.70;3.13;;;;;;;;;;4943167;28;20059;-93
2023/05/30 07:04:35;;;;;;;10.73;2.65;;;;;;;;;;4959847;28;20069;-92
2023/05/30 07:07:20;;;;;;;8.75;2.60;;;;;;;;;;4929171;29;20042;-93
2023/05/30 07:10:04;;;;;;;8.48;2.80;;;;;;;;;;4942755;28;20400;-94
2023/05/30 07:12:49;;;;;;;12.05;3.28;;;;;;;;;;4956975;29;20086;-94
2023/05/30 07:15:34;;;;;;;8.68;2.35;;;;;;;;;;4942291;28;20082;-92
2023/05/30 07:18:18;;;;;;;7.60;3.08;;;;;;;;;;4956648;28;20074;-94
2023/05/30 07:21:03;;;;;;;9.93;2.38;;;;;;;;;;4944609;29;20568;-93
2023/05/30 07:23:48;;;;;;;8.43;2.30;;;;;;;;;;4928834;28;20054;-94
2023/05/30 07:26:32;;;;;;;5.18;2.00;;;;;;;;;;4928491;29;20077;-92
2023/05/30 07:29:19;;;;;;;5.10;2.08;;;;;;;;;;4956394;28;20054;-91
2023/05/30 07:32:04;;;;;;;8.63;2.30;;;;;;;;;;4942502;29;20067;-94
2023/05/30 07:34:49;;;;;;;5.78;2.67;;;;;;;;;;4942202;29;20094;-94
2023/05/30 07:37:36;;;;;;;5.72;2.20;;;;;;;;;;4941552;29;20103;-93
2023/05/30 07:40:21;;;;;;;6.15;2.22;;;;;;;;;;4940924;29;20122;-94
2023/05/30 07:43:06;;;;;;;7.60;1.90;;;;;;;;;;4928924;29;20046;-93
2023/05/30 07:45:50;;;;;;;6.68;2.13;;;;;;;;;;4956405;28;20148;-94
2023/05/30 07:48:35;;;;;;;4.43;2.10;;;;;;;;;;4941608;29;20042;-94
2023/05/30 07:51:22;;;;;;;7.38;2.80;;;;;;;;;;4941806;28;20074;-91
2023/05/30 07:54:06;;;;;;;6.72;2.72;;;;;;;;;;4941862;29;20127;-93
2023/05/30 07:56:51;;;;;;;6.13;2.10;;;;;;;;;;4930247;29;20535;-94
2023/05/30 07:59:36;;;;;;;7.03;2.50;;;;;;;;;;4941144;28;20085;-94
2023/05/30 08:02:24;;;;;;;6.88;2.95;;;;;;;;;;4956032;28;20042;-91
2023/05/30 08:05:08;;;;;;;12.38;2.72;;;;;;;;;;4941791;28;20082;-93
2023/05/30 08:07:53;;;;;;;6.97;2.40;;;;;;;;;;4941677;29;20078;-94
2023/05/30 08:10:37;;;;;;;8.35;2.90;;;;;;;;;;4955299;28;20066;-92
2023/05/30 08:13:27;;;;;;;5.30;2.30;;;;;;;;;;4955725;28;20067;-93
2023/05/30 08:16:12;;;;;;;9.23;2.97;;;;;;;;;;4955990;28;20043;-93
2023/05/30 08:18:57;;;;;;;7.47;2.58;;;;;;;;;;4941395;28;20042;-94
2023/05/30 08:21:43;;;;;;;9.38;3.03;;;;;;;;;;4955518;29;20124;-93
2023/05/30 08:24:28;;;;;;;7.30;2.28;;;;;;;;;;4943113;29;20062;-93
2023/05/30 08:27:13;;;;;;;4.15;1.90;;;;;;;;;;4955685;28;20042;-93
2023/05/30 08:29:59;;;;;;;7.18;2.45;;;;;;;;;;4955610;28;20051;-93
2023/05/30 08:32:44;;;;;;;3.83;1.80;;;;;;;;;;4955001;28;20157;-94
2023/05/30 08:35:29;;;;;;;4.15;1.55;;;;;;;;;;4927635;29;20059;-92
2023/05/30 08:38:15;;;;;;;5.20;1.80;;;;;;;;;;4940938;29;20062;-92
2023/05/30 08:40:59;;;;;;;7.32;2.17;;;;;;;;;;4940960;28;20043;-94
2023/05/30 08:43:44;;;;;;;6.97;2.42;;;;;;;;;;4940576;29;20117;-92
2023/05/30 08:46:29;;;;;;;3.95;1.98;;;;;;;;;;4941796;29;20041;-94
2023/05/30 08:49:16;;;;;;;4.22;1.92;;;;;;;;;;4955165;28;20046;-93
2023/05/30 08:52:02;;;;;;;6.25;2.38;;;;;;;;;;4955759;28;20108;-95
2023/05/30 08:55:02;;;;;;;3.95;1.88;;;;;;;;;;4954555;28;20046;-94
2023/05/30 08:58:19;;;;;;;3.17;1.40;;;;;;;;;;4954469;28;20623;-92
2023/05/30 09:01:03;;;;;;;6.07;1.77;;;;;;;;;;4938023;28;20041;-94
2023/05/30 09:03:48;;;;;;;4.55;1.70;;;;;;;;;;4954571;29;20077;-92
2023/05/30 09:06:36;;;;;;;2.75;1.33;;;;;;;;;;4940166;29;20074;-94
2023/05/30 09:09:23;;;;;;;3.90;1.50;;;;;;;;;;4940600;29;20105;-92
2023/05/30 09:12:09;;;;;;;5.45;1.77;;;;;;;;;;4968350;28;20400;-93
2023/05/30 09:14:54;;;;;;;3.80;1.98;;;;;;;;;;4954855;28;20074;-94
2023/05/30 09:17:39;;;;;;;4.53;2.17;;;;;;;;;;4927676;29;20090;-93
2023/05/30 09:20:23;;;;;;;5.47;2.03;;;;;;;;;;4954588;28;20404;-93
2023/05/30 09:23:08;;;;;;;5.10;2.30;;;;;;;;;;4954749;28;20042;-93
2023/05/30 09:25:54;;;;;;;4.47;1.63;;;;;;;;;;4954169;28;20095;-93
2023/05/30 09:28:38;;;;;;;7.28;1.95;;;;;;;;;;4939809;29;20112;-94
2023/05/30 09:31:23;;;;;;;3.00;1.40;;;;;;;;;;4943237;28;20046;-94
2023/05/30 09:34:08;;;;;;;6.43;1.75;;;;;;;;;;4954442;28;20054;-92
2023/05/30 09:36:56;;;;;;;3.95;1.60;;;;;;;;;;4939272;29;20046;-93
2023/05/30 09:39:40;;;;;;;2.58;1.65;;;;;;;;;;4940770;29;20051;-93
2023/05/30 09:42:25;;;;;;;2.20;1.30;;;;;;;;;;4954373;28;20122;-94
2023/05/30 09:45:14;;;;;;;5.03;1.33;;;;;;;;;;4954503;28;20106;-94
2023/05/30 09:47:58;;;;;;;3.13;1.10;;;;;;;;;;4940043;29;20567;-93
2023/05/30 09:50:43;;;;;;;3.83;1.40;;;;;;;;;;4953792;28;20723;-93
2023/05/30 09:53:31;;;;;;;1.92;1.10;;;;;;;;;;4940164;29;20492;-95
2023/05/30 09:56:16;;;;;;;3.03;1.40;;;;;;;;;;4954075;28;20041;-93
2023/05/30 09:59:13;;;;;;;5.22;1.50;;;;;;;;;;4954360;28;20046;-92
2023/05/30 10:02:01;;;;;;;2.50;1.30;;;;;;;;;;4953834;28;20082;-94
2023/05/30 10:04:47;;;;;;;2.40;1.05;;;;;;;;;;4938782;28;20049;-94
2023/05/30 10:07:32;;;;;;;3.60;1.55;;;;;;;;;;4942413;28;20038;-91
2023/05/30 10:10:18;;;;;;;3.22;1.30;;;;;;;;;;4954045;28;20109;-94
2023/05/30 10:13:03;;;;;;;2.42;1.00;;;;;;;;;;4939828;29;20034;-93
2023/05/30 10:15:48;;;;;;;5.85;1.40;;;;;;;;;;4953241;28;20039;-93
2023/05/30 10:18:33;;;;;;;3.33;1.27;;;;;;;;;;4953949;28;20118;-93
2023/05/30 10:21:19;;;;;;;2.83;1.02;;;;;;;;;;4954216;29;20139;-93
2023/05/30 10:24:05;;;;;;;1.58;1.10;;;;;;;;;;4939467;28;20082;-93
2023/05/30 10:26:55;;;;;;;1.95;0.90;;;14.80;99.90;;;;;;4939311;29;20051;-93
2023/05/30 10:29:46;;;;;;;2.30;0.90;;;;;;;;;;4938984;29;20058;-92
2023/05/30 10:32:36;;;;;;;2.17;1.02;;;14.70;99.90;;;;;;4953817;28;20030;-94
2023/05/30 10:35:21;;;;;;;2.53;1.27;;;;;;;;;;4957915;29;20166;-93
2023/05/30 10:38:07;;;;;;;1.60;0.93;;;;;;;;;;4942820;28;20118;-93
2023/05/30 10:41:13;;;;;;;2.88;1.77;;;14.50;99.90;;;;;;4938453;28;20039;-94
2023/05/30 10:44:26;;;;;;;3.85;1.20;;;14.50;99.90;;;;;;4954041;28;20070;-91
2023/05/30 10:47:39;;;;;;;4.27;1.13;;;14.50;99.90;;;;;;4896121;29;20110;-92
2023/05/30 10:50:27;;;;;;;3.03;1.20;;;;;;;;;;4938411;29;20555;-92
2023/05/30 10:53:14;;;;;;;3.10;1.35;;;;;;;;;;4958854;28;20416;-94
2023/05/30 10:55:59;;;;;;;7.15;2.08;;;;;;;;;;4958165;28;20672;-92
2023/05/30 10:58:47;;;;;;;4.03;1.48;;;;;;;;;;4939300;29;20045;-93
2023/05/30 11:01:33;;;;;;;5.40;1.20;;;;;;;;;;4946654;28;20037;-93
2023/05/30 11:04:17;;;;;;;2.10;1.20;;;;;;;;;;4946898;29;20527;-92
2023/05/30 11:07:05;;;;;;;1.70;1.13;;;;;;;;;;4953319;29;20673;-92
2023/05/30 11:10:14;;;;;;;4.95;1.63;;;14.50;99.90;;;;;;4939285;29;20502;-92
2023/05/30 11:13:09;;;;;;;3.92;2.80;;;;;;;;;;4943264;28;20061;-91
2023/05/30 11:15:54;;;;;;;4.60;1.52;;;;;;;;;;4942548;28;20506;-93
2023/05/30 11:18:40;;;;;;;3.83;1.88;;;14.90;99.90;;;;;;4942729;28;20085;-94
2023/05/30 11:21:44;;;;;;;2.90;1.30;;;;;;;;;;4944460;29;20082;-92
2023/05/30 11:24:31;;;;;;;3.30;1.55;;;15.00;99.90;;;;;;4951406;29;20113;-92
2023/05/30 11:27:16;;;;;;;3.00;1.50;;;;;;;;;;4961968;28;20037;-89
2023/05/30 11:30:01;;;;;;;1.77;1.20;;;;;;;;;;4941756;29;20227;-93
2023/05/30 11:32:45;;;;;;;2.10;1.20;;;;;;;;;;4957162;28;20061;-92
2023/05/30 11:35:31;;;;;;;3.25;1.10;;;;;;;;;;4957406;29;20104;-93
2023/05/30 11:38:20;;;;;;;3.92;1.52;;;15.00;99.90;;;;;;4975557;28;20081;-91
2023/05/30 11:41:06;;;;;;;4.22;1.00;;;;;;;;;;4972191;28;20298;-92
2023/05/30 11:43:51;;;;;;;2.60;1.02;;;;;;;;;;4977130;28;20067;-92
2023/05/30 11:46:36;;;;;;;3.30;1.08;;;;;;;;;;4975794;28;20502;-91
2023/05/30 11:49:21;;;;;;;2.85;0.90;;;;;;;;;;4941340;28;20050;-93
2023/05/30 11:52:06;;;;;;;2.55;1.00;;;;;;;;;;4928591;29;20086;-94
2023/05/30 11:54:51;;;;;;;2.58;1.10;;;;;;;;;;4961033;28;20125;-93
2023/05/30 11:57:35;;;;;;;2.63;1.05;;;;;;;;;;4949811;28;20090;-93
2023/05/30 12:00:20;;;;;;;2.65;0.98;;;;;;;;;;4956462;29;20093;-93
2023/05/30 12:03:05;;;;;;;3.58;1.10;;;;;;;;;;4955807;29;20066;-92
2023/05/30 12:05:50;;;;;;;3.05;1.20;;;;;;;;;;4955960;29;20058;-92
2023/05/30 12:08:39;;;;;;;3.15;1.02;;;;;;;;;;4956034;28;20070;-93
2023/05/30 12:11:24;;;;;;;2.20;1.08;;;;;;;;;;4955950;28;20119;-93
2023/05/30 12:14:09;;;;;;;3.65;1.27;;;;;;;;;;4927777;29;20413;-93
2023/05/30 12:16:57;;;;;;;4.10;1.20;;;;;;;;;;4955152;28;20042;-93
2023/05/30 12:19:44;;;;;;;3.28;1.20;;;;;;;;;;4955896;29;20046;-94
2023/05/30 12:22:33;;;;;;;2.22;1.20;;;;;;;;;;4955646;28;20042;-93
2023/05/30 12:25:24;;;;;;;3.33;1.30;;;;;;;;;;4940845;28;20455;-93
2023/05/30 12:28:12;;;;;;;2.97;2.05;;;15.60;99.90;;;;;;4940724;29;20440;-93
2023/05/30 12:30:57;;;;;;;3.47;1.25;;;;;;;;;;4954944;28;20046;-92
2023/05/30 12:33:44;;;;;;;2.50;1.20;;;;;;;;;;4955632;29;20543;-93
2023/05/30 12:36:28;;;;;;;2.63;1.33;;;;;;;;;;4940835;29;20034;-92
2023/05/30 12:39:13;;;;;;;2.55;1.60;;;;;;;;;;4934771;29;20614;-92
2023/05/30 12:41:58;;;;;;;2.70;1.30;;;;;;;;;;4935618;29;20091;-93
2023/05/30 12:44:49;;;;;;;3.30;1.50;;;;;;;;;;4921520;29;20460;-92
2023/05/30 12:47:37;;;;;;;2.78;1.38;;;;;;;;;;4937050;29;20063;-93
2023/05/30 12:50:22;;;;;;;3.90;1.48;;;;;;;;;;4936122;29;20047;-93
2023/05/30 12:53:07;;;;;;;3.58;1.33;;;;;;;;;;4907989;29;20039;-92
2023/05/30 12:55:51;;;;;;;3.63;1.42;;;;;;;;;;4921749;29;20046;-92
2023/05/30 12:58:36;;;;;;;3.85;1.38;;;;;;;;;;4935174;29;20064;-93
2023/05/30 13:01:20;;;;;;;2.58;1.13;;;;;;;;;;4921612;29;20060;-92
2023/05/30 13:04:05;;;;;;;3.60;1.30;;;;;;;;;;4935420;29;20098;-92
2023/05/30 13:06:49;;;;;;;2.83;1.20;;;;;;;;;;4935693;29;20099;-93
2023/05/30 13:09:34;;;;;;;2.38;1.50;;;;;;;;;;4935856;29;20384;-92
2023/05/30 13:12:19;;;;;;;2.88;1.35;;;;;;;;;;4934911;29;20607;-92
2023/05/30 13:15:04;;;;;;;3.00;1.40;;;;;;;;;;4920638;29;20468;-91
2023/05/30 13:17:50;;;;;;;3.47;1.33;;;;;;;;;;4935455;29;20074;-93
2023/05/30 13:20:34;;;;;;;4.60;1.48;;;;;;;;;;4934740;29;20090;-91
2023/05/30 13:23:19;;;;;;;2.10;1.23;;;;;;;;;;4935013;29;20099;-91
2023/05/30 13:26:04;;;;;;;2.28;1.30;;;;;;;;;;4935065;29;20091;-92
2023/05/30 13:28:48;;;;;;;2.08;1.05;;;;;;;;;;4935076;29;20051;-92
2023/05/30 13:31:34;;;;;;;2.83;1.20;;;;;;;;;;4935280;29;20039;-92
2023/05/30 13:34:18;;;;;;;3.17;1.20;;;;;;;;;;4934581;29;20046;-92
2023/05/30 13:37:03;;;;;;;2.63;1.27;;;;;;;;;;4935670;29;20151;-92
2023/05/30 13:39:48;;;;;;;3.33;1.63;;;;;;;;;;4939928;29;20042;-92
2023/05/30 13:42:32;;;;;;;3.95;1.15;;;;;;;;;;4954462;28;20530;-92
2023/05/30 13:45:18;;;;;;;3.70;1.40;;;;;;;;;;4939367;29;20457;-94
2023/05/30 13:48:03;;;;;;;4.28;1.50;;;;;;;;;;4953475;28;20189;-92
2023/05/30 13:50:48;;;;;;;3.05;1.63;;;;;;;;;;4939592;29;20101;-92
2023/05/30 13:53:33;;;;;;;3.17;1.55;;;;;;;;;;4928628;29;20097;-92
2023/05/30 13:56:17;;;;;;;2.75;1.15;;;;;;;;;;4953408;28;20037;-92
2023/05/30 13:59:02;;;;;;;2.67;1.30;;;;;;;;;;4939136;29;20408;-91
2023/05/30 14:01:47;;;;;;;2.92;1.45;;;;;;;;;;4939446;29;20038;-91
2023/05/30 14:04:31;;;;;;;5.70;1.70;;;;;;;;;;4953620;28;20135;-92
2023/05/30 14:07:16;;;;;;;5.45;1.60;;;;;;;;;;4953619;28;20114;-92
2023/05/30 14:10:00;;;;;;;2.22;1.40;;;;;;;;;;4939224;29;20035;-92
2023/05/30 14:12:46;;;;;;;4.80;1.50;;;;;;;;;;4953793;28;20147;-92
2023/05/30 14:15:32;;;;;;;2.97;1.40;;;;;;;;;;4953710;28;20050;-91
2023/05/30 14:18:17;;;;;;;3.20;1.70;;;;;;;;;;4953330;29;20098;-91
2023/05/30 14:21:02;;;;;;;2.60;1.20;;;;;;;;;;4940971;29;20448;-92
2023/05/30 14:23:46;;;;;;;2.58;1.20;;;;;;;;;;4953557;28;20447;-93
2023/05/30 14:26:33;;;;;;;2.95;1.60;;;;;;;;;;4953588;29;20070;-92
2023/05/30 14:29:17;;;;;;;3.92;1.48;;;;;;;;;;4938701;28;20045;-92
2023/05/30 14:32:02;;;;;;;4.10;1.40;;;;;;;;;;4939208;29;20055;-92
2023/05/30 14:34:47;;;;;;;2.55;1.63;;;;;;;;;;4941968;29;20046;-92
2023/05/30 14:37:31;;;;;;;3.75;1.65;;;;;;;;;;4938919;29;20086;-92
2023/05/30 14:40:16;;;;;;;2.90;1.77;;;;;;;;;;4953122;29;20502;-92
2023/05/30 14:43:01;;;;;;;3.08;1.50;;;;;;;;;;4953494;28;20038;-91
2023/05/30 14:45:45;;;;;;;2.75;1.35;;;;;;;;;;4938851;28;20050;-92
2023/05/30 14:48:30;;;;;;;2.95;1.35;;;;;;;;;;4938953;28;20122;-92
2023/05/30 14:51:15;;;;;;;4.30;1.50;;;;;;;;;;4956447;28;20054;-92
2023/05/30 14:54:00;;;;;;;2.20;1.38;;;;;;;;;;4942771;29;20412;-93
2023/05/30 14:56:47;;;;;;;4.30;1.58;;;;;;;;;;4944293;28;20038;-92
2023/05/30 14:59:32;;;;;;;2.55;1.30;;;;;;;;;;4956592;28;20090;-93
2023/05/30 15:02:16;;;;;;;3.72;1.60;;;;;;;;;;4928882;29;20046;-94
2023/05/30 15:05:01;;;;;;;3.30;1.40;;;;;;;;;;4942414;28;20066;-92
2023/05/30 15:07:46;;;;;;;3.20;1.60;;;;;;;;;;4942357;29;20102;-92
2023/05/30 15:10:31;;;;;;;4.10;1.60;;;;;;;;;;4941831;28;20134;-93
2023/05/30 15:13:16;;;;;;;2.15;1.30;;;;;;;;;;4956471;28;20042;-93
2023/05/30 15:16:01;;;;;;;2.90;1.20;;;;;;;;;;4944736;28;20495;-93
2023/05/30 15:18:45;;;;;;;2.15;1.30;;;;;;;;;;4956924;28;20440;-93
2023/05/30 15:21:32;;;;;;;2.10;1.20;;;;;;;;;;4928831;29;20042;-93
2023/05/30 15:24:17;;;;;;;3.70;1.25;;;;;;;;;;4941618;28;20070;-92
2023/05/30 15:27:02;;;;;;;3.88;1.90;;;;;;;;;;4956592;28;20099;-90
2023/05/30 15:29:46;;;;;;;3.85;1.50;;;;;;;;;;4945801;28;20049;-91
2023/05/30 15:32:31;;;;;;;3.05;1.50;;;;;;;;;;4941767;29;20133;-93
2023/05/30 15:35:15;;;;;;;2.40;1.42;;;;;;;;;;4941756;29;20089;-91
2023/05/30 15:38:00;;;;;;;3.45;1.52;;;;;;;;;;4943311;28;20427;-92
2023/05/30 15:40:45;;;;;;;2.70;1.35;;;;;;;;;;4941582;28;20047;-93
2023/05/30 15:43:29;;;;;;;3.72;1.60;;;;;;;;;;4955803;29;20070;-92
2023/05/30 15:46:17;;;;;;;3.30;1.50;;;;;;;;;;4927802;29;20429;-91
2023/05/30 15:49:01;;;;;;;2.85;1.35;;;;;;;;;;4941667;29;20102;-92
2023/05/30 15:51:46;;;;;;;7.22;1.75;;;;;;;;;;4941942;29;20163;-91
2023/05/30 15:54:32;;;;;;;4.28;1.65;;;;;;;;;;4940917;28;20050;-93
2023/05/30 15:57:17;;;;;;;4.60;2.08;;;;;;;;;;4941328;29;20447;-92
2023/05/30 16:00:02;;;;;;;2.90;1.95;;;;;;;;;;4958274;28;20042;-89
2023/05/30 16:02:46;;;;;;;5.18;1.80;;;;;;;;;;4956231;29;20070;-91
2023/05/30 16:05:31;;;;;;;3.90;1.95;;;;;;;;;;4941205;29;20053;-92
2023/05/30 16:08:15;;;;;;;5.55;2.13;;;;;;;;;;4956068;29;20503;-93
2023/05/30 16:11:00;;;;;;;5.28;2.00;;;;;;;;;;4955737;29;20046;-92
2023/05/30 16:13:44;;;;;;;5.95;1.70;;;;;;;;;;4956005;28;20051;-92
2023/05/30 16:16:29;;;;;;;3.70;2.05;;;;;;;;;;4954711;29;20043;-94
2023/05/30 16:19:14;;;;;;;4.22;2.60;;;;;;;;;;4942474;28;20078;-93
2023/05/30 16:21:59;;;;;;;6.57;2.00;;;;;;;;;;4947230;28;20093;-94
2023/05/30 16:24:43;;;;;;;5.57;1.73;;;;;;;;;;4964043;28;20139;-94